sensor_id;sensor_type;location;lat;lon;timestamp;P1;durP1;ratioP1;P2;durP2;ratioP2
2944;SDS011;1482;51.398;7.128;2023-04-04T00:00:28;3.30;;;2.33;;
2944;SDS011;1482;51.398;7.128;2023-04-04T00:02:54;5.77;;;3.13;;
2944;SDS011;1482;51.398;7.128;2023-04-04T00:05:20;4.50;;;2.87;;
2944;SDS011;1482;51.398;7.128;2023-04-04T00:07:46;3.60;;;2.30;;
2944;SDS011;1482;51.398;7.128;2023-04-04T00:10:11;5.30;;;2.43;;
2944;SDS011;1482;51.398;7.128;2023-04-04T00:12:37;3.47;;;2.17;;
2944;SDS011;1482;51.398;7.128;2023-04-04T00:15:03;3.67;;;2.30;;
2944;SDS011;1482;51.398;7.128;2023-04-04T00:17:29;2.87;;;2.27;;
2944;SDS011;1482;51.398;7.128;2023-04-04T00:19:55;4.13;;;3.23;;
2944;SDS011;1482;51.398;7.128;2023-04-04T00:22:21;3.17;;;2.43;;
2944;SDS011;1482;51.398;7.128;2023-04-04T00:24:47;5.10;;;2.67;;
2944;SDS011;1482;51.398;7.128;2023-04-04T00:27:13;3.57;;;2.30;;
2944;SDS011;1482;51.398;7.128;2023-04-04T00:29:39;3.10;;;2.80;;
2944;SDS011;1482;51.398;7.128;2023-04-04T00:32:05;3.33;;;2.80;;
2944;SDS011;1482;51.398;7.128;2023-04-04T00:34:31;5.47;;;3.20;;
2944;SDS011;1482;51.398;7.128;2023-04-04T00:36:56;5.50;;;2.40;;
2944;SDS011;1482;51.398;7.128;2023-04-04T00:39:22;5.30;;;2.57;;
2944;SDS011;1482;51.398;7.128;2023-04-04T00:41:50;4.33;;;2.70;;
2944;SDS011;1482;51.398;7.128;2023-04-04T00:44:16;6.70;;;3.00;;
2944;SDS011;1482;51.398;7.128;2023-04-04T00:46:42;3.30;;;2.33;;
2944;SDS011;1482;51.398;7.128;2023-04-04T00:49:07;6.70;;;2.70;;
2944;SDS011;1482;51.398;7.128;2023-04-04T00:51:33;7.00;;;4.20;;
2944;SDS011;1482;51.398;7.128;2023-04-04T00:53:58;3.00;;;2.70;;
2944;SDS011;1482;51.398;7.128;2023-04-04T00:56:24;3.33;;;2.43;;
2944;SDS011;1482;51.398;7.128;2023-04-04T00:58:50;3.60;;;3.27;;
2944;SDS011;1482;51.398;7.128;2023-04-04T01:01:15;4.07;;;2.37;;
2944;SDS011;1482;51.398;7.128;2023-04-04T01:03:41;3.93;;;2.50;;
2944;SDS011;1482;51.398;7.128;2023-04-04T01:06:08;3.00;;;2.57;;
2944;SDS011;1482;51.398;7.128;2023-04-04T01:08:35;4.63;;;3.30;;
2944;SDS011;1482;51.398;7.128;2023-04-04T01:11:03;10.67;;;4.63;;
2944;SDS011;1482;51.398;7.128;2023-04-04T01:13:30;15.27;;;3.10;;
2944;SDS011;1482;51.398;7.128;2023-04-04T01:15:56;4.27;;;3.17;;
2944;SDS011;1482;51.398;7.128;2023-04-04T01:18:21;6.33;;;3.00;;
2944;SDS011;1482;51.398;7.128;2023-04-04T01:21:10;2.93;;;2.60;;
2944;SDS011;1482;51.398;7.128;2023-04-04T01:26:13;12.90;;;3.13;;
2944;SDS011;1482;51.398;7.128;2023-04-04T01:28:39;4.30;;;3.20;;
2944;SDS011;1482;51.398;7.128;2023-04-04T01:31:05;6.37;;;2.57;;
2944;SDS011;1482;51.398;7.128;2023-04-04T01:33:39;5.07;;;3.03;;
2944;SDS011;1482;51.398;7.128;2023-04-04T01:36:22;6.73;;;2.70;;
2944;SDS011;1482;51.398;7.128;2023-04-04T01:38:57;3.30;;;2.90;;
2944;SDS011;1482;51.398;7.128;2023-04-04T01:41:29;4.67;;;3.40;;
2944;SDS011;1482;51.398;7.128;2023-04-04T01:43:58;5.23;;;3.57;;
2944;SDS011;1482;51.398;7.128;2023-04-04T01:46:24;6.63;;;3.00;;
2944;SDS011;1482;51.398;7.128;2023-04-04T01:48:51;3.67;;;3.33;;
2944;SDS011;1482;51.398;7.128;2023-04-04T01:51:20;4.93;;;3.37;;
2944;SDS011;1482;51.398;7.128;2023-04-04T01:53:46;3.53;;;2.83;;
2944;SDS011;1482;51.398;7.128;2023-04-04T01:56:12;5.13;;;3.50;;
2944;SDS011;1482;51.398;7.128;2023-04-04T01:58:37;5.77;;;3.30;;
2944;SDS011;1482;51.398;7.128;2023-04-04T02:01:03;3.87;;;3.40;;
2944;SDS011;1482;51.398;7.128;2023-04-04T02:03:28;4.63;;;3.57;;
2944;SDS011;1482;51.398;7.128;2023-04-04T02:05:54;6.70;;;4.00;;
2944;SDS011;1482;51.398;7.128;2023-04-04T02:08:20;5.83;;;4.13;;
2944;SDS011;1482;51.398;7.128;2023-04-04T02:10:45;4.97;;;3.20;;
2944;SDS011;1482;51.398;7.128;2023-04-04T02:13:11;8.53;;;4.27;;
2944;SDS011;1482;51.398;7.128;2023-04-04T02:15:36;6.47;;;3.80;;
2944;SDS011;1482;51.398;7.128;2023-04-04T02:18:02;8.57;;;3.87;;
2944;SDS011;1482;51.398;7.128;2023-04-04T02:20:28;5.13;;;3.40;;
2944;SDS011;1482;51.398;7.128;2023-04-04T02:22:54;8.60;;;4.10;;
2944;SDS011;1482;51.398;7.128;2023-04-04T02:25:23;7.57;;;3.33;;
2944;SDS011;1482;51.398;7.128;2023-04-04T02:27:49;6.63;;;4.20;;
2944;SDS011;1482;51.398;7.128;2023-04-04T02:30:15;9.27;;;4.10;;
2944;SDS011;1482;51.398;7.128;2023-04-04T02:32:41;7.33;;;4.27;;
2944;SDS011;1482;51.398;7.128;2023-04-04T02:35:07;5.27;;;3.93;;
2944;SDS011;1482;51.398;7.128;2023-04-04T02:37:33;6.77;;;4.33;;
2944;SDS011;1482;51.398;7.128;2023-04-04T02:39:58;6.93;;;5.10;;
2944;SDS011;1482;51.398;7.128;2023-04-04T02:42:24;9.73;;;4.30;;
2944;SDS011;1482;51.398;7.128;2023-04-04T02:44:49;10.10;;;4.90;;
2944;SDS011;1482;51.398;7.128;2023-04-04T02:47:15;8.00;;;4.33;;
2944;SDS011;1482;51.398;7.128;2023-04-04T02:49:41;8.03;;;4.30;;
2944;SDS011;1482;51.398;7.128;2023-04-04T02:52:07;8.30;;;3.80;;
2944;SDS011;1482;51.398;7.128;2023-04-04T02:54:32;5.67;;;4.10;;
2944;SDS011;1482;51.398;7.128;2023-04-04T02:56:58;6.20;;;3.60;;
2944;SDS011;1482;51.398;7.128;2023-04-04T02:59:24;6.30;;;4.37;;
2944;SDS011;1482;51.398;7.128;2023-04-04T03:01:49;7.97;;;4.63;;
2944;SDS011;1482;51.398;7.128;2023-04-04T03:04:21;7.70;;;3.87;;
2944;SDS011;1482;51.398;7.128;2023-04-04T03:06:47;10.30;;;4.43;;
2944;SDS011;1482;51.398;7.128;2023-04-04T03:09:12;10.13;;;4.10;;
2944;SDS011;1482;51.398;7.128;2023-04-04T03:11:38;8.87;;;5.43;;
2944;SDS011;1482;51.398;7.128;2023-04-04T03:14:04;9.33;;;4.47;;
2944;SDS011;1482;51.398;7.128;2023-04-04T03:16:29;4.33;;;3.90;;
2944;SDS011;1482;51.398;7.128;2023-04-04T03:18:55;6.53;;;4.53;;
2944;SDS011;1482;51.398;7.128;2023-04-04T03:21:21;7.53;;;4.30;;
2944;SDS011;1482;51.398;7.128;2023-04-04T03:23:46;8.27;;;4.20;;
2944;SDS011;1482;51.398;7.128;2023-04-04T03:26:12;10.53;;;5.47;;
2944;SDS011;1482;51.398;7.128;2023-04-04T03:28:37;6.70;;;4.70;;
2944;SDS011;1482;51.398;7.128;2023-04-04T03:31:03;10.50;;;4.77;;
2944;SDS011;1482;51.398;7.128;2023-04-04T03:33:30;5.67;;;4.63;;
2944;SDS011;1482;51.398;7.128;2023-04-04T03:35:57;5.27;;;4.47;;
2944;SDS011;1482;51.398;7.128;2023-04-04T03:38:23;8.00;;;4.40;;
2944;SDS011;1482;51.398;7.128;2023-04-04T03:40:48;8.00;;;4.60;;
2944;SDS011;1482;51.398;7.128;2023-04-04T03:43:14;9.73;;;4.97;;
2944;SDS011;1482;51.398;7.128;2023-04-04T03:45:40;6.60;;;4.43;;
2944;SDS011;1482;51.398;7.128;2023-04-04T03:48:06;11.10;;;4.63;;
2944;SDS011;1482;51.398;7.128;2023-04-04T03:50:31;8.20;;;3.60;;
2944;SDS011;1482;51.398;7.128;2023-04-04T03:52:57;4.80;;;3.70;;
2944;SDS011;1482;51.398;7.128;2023-04-04T03:55:22;5.77;;;4.40;;
2944;SDS011;1482;51.398;7.128;2023-04-04T03:57:48;5.57;;;3.73;;
2944;SDS011;1482;51.398;7.128;2023-04-04T04:00:14;6.50;;;4.83;;
2944;SDS011;1482;51.398;7.128;2023-04-04T04:02:40;3.40;;;3.10;;
2944;SDS011;1482;51.398;7.128;2023-04-04T04:05:06;15.33;;;4.17;;
2944;SDS011;1482;51.398;7.128;2023-04-04T04:07:31;13.33;;;4.93;;
2944;SDS011;1482;51.398;7.128;2023-04-04T04:09:57;8.50;;;5.13;;
2944;SDS011;1482;51.398;7.128;2023-04-04T04:12:23;8.30;;;4.20;;
2944;SDS011;1482;51.398;7.128;2023-04-04T04:14:50;7.07;;;4.83;;
2944;SDS011;1482;51.398;7.128;2023-04-04T04:17:15;6.37;;;4.50;;
2944;SDS011;1482;51.398;7.128;2023-04-04T04:19:41;8.20;;;4.93;;
2944;SDS011;1482;51.398;7.128;2023-04-04T04:22:06;11.67;;;5.00;;
2944;SDS011;1482;51.398;7.128;2023-04-04T04:24:32;9.00;;;5.43;;
2944;SDS011;1482;51.398;7.128;2023-04-04T04:26:57;7.60;;;5.07;;
2944;SDS011;1482;51.398;7.128;2023-04-04T04:29:23;8.63;;;5.87;;
2944;SDS011;1482;51.398;7.128;2023-04-04T04:31:48;8.63;;;6.03;;
2944;SDS011;1482;51.398;7.128;2023-04-04T04:34:15;7.60;;;6.10;;
2944;SDS011;1482;51.398;7.128;2023-04-04T04:36:41;9.70;;;5.50;;
2944;SDS011;1482;51.398;7.128;2023-04-04T04:39:07;9.67;;;6.23;;
2944;SDS011;1482;51.398;7.128;2023-04-04T04:41:32;7.40;;;4.93;;
2944;SDS011;1482;51.398;7.128;2023-04-04T04:43:58;7.13;;;4.77;;
2944;SDS011;1482;51.398;7.128;2023-04-04T04:46:23;10.30;;;5.47;;
2944;SDS011;1482;51.398;7.128;2023-04-04T04:48:49;7.17;;;5.80;;
2944;SDS011;1482;51.398;7.128;2023-04-04T04:51:14;8.63;;;6.10;;
2944;SDS011;1482;51.398;7.128;2023-04-04T04:53:40;9.40;;;6.10;;
2944;SDS011;1482;51.398;7.128;2023-04-04T04:56:06;6.77;;;5.27;;
2944;SDS011;1482;51.398;7.128;2023-04-04T04:58:32;7.77;;;6.43;;
2944;SDS011;1482;51.398;7.128;2023-04-04T05:00:57;10.50;;;6.17;;
2944;SDS011;1482;51.398;7.128;2023-04-04T05:03:23;8.03;;;6.27;;
2944;SDS011;1482;51.398;7.128;2023-04-04T05:05:49;10.07;;;5.90;;
2944;SDS011;1482;51.398;7.128;2023-04-04T05:08:15;6.63;;;5.40;;
2944;SDS011;1482;51.398;7.128;2023-04-04T05:10:41;9.80;;;6.50;;
2944;SDS011;1482;51.398;7.128;2023-04-04T05:13:06;15.23;;;6.03;;
2944;SDS011;1482;51.398;7.128;2023-04-04T05:15:34;8.60;;;7.40;;
2944;SDS011;1482;51.398;7.128;2023-04-04T05:17:59;15.63;;;8.70;;
2944;SDS011;1482;51.398;7.128;2023-04-04T05:20:25;10.30;;;5.80;;
2944;SDS011;1482;51.398;7.128;2023-04-04T05:22:51;12.60;;;6.17;;
2944;SDS011;1482;51.398;7.128;2023-04-04T05:25:16;12.80;;;7.00;;
2944;SDS011;1482;51.398;7.128;2023-04-04T05:27:45;11.13;;;5.93;;
2944;SDS011;1482;51.398;7.128;2023-04-04T05:30:12;8.93;;;6.37;;
2944;SDS011;1482;51.398;7.128;2023-04-04T05:32:38;9.30;;;6.30;;
2944;SDS011;1482;51.398;7.128;2023-04-04T05:35:03;6.23;;;5.60;;
2944;SDS011;1482;51.398;7.128;2023-04-04T05:37:29;11.67;;;7.23;;
2944;SDS011;1482;51.398;7.128;2023-04-04T05:39:55;12.00;;;6.73;;
2944;SDS011;1482;51.398;7.128;2023-04-04T05:42:21;7.73;;;6.27;;
2944;SDS011;1482;51.398;7.128;2023-04-04T05:44:47;6.83;;;6.13;;
2944;SDS011;1482;51.398;7.128;2023-04-04T05:47:12;8.17;;;5.40;;
2944;SDS011;1482;51.398;7.128;2023-04-04T05:49:38;11.03;;;5.37;;
2944;SDS011;1482;51.398;7.128;2023-04-04T05:52:03;10.80;;;6.47;;
2944;SDS011;1482;51.398;7.128;2023-04-04T05:54:29;6.40;;;5.80;;
2944;SDS011;1482;51.398;7.128;2023-04-04T05:56:54;8.63;;;5.70;;
2944;SDS011;1482;51.398;7.128;2023-04-04T05:59:20;6.80;;;5.00;;
2944;SDS011;1482;51.398;7.128;2023-04-04T06:01:46;7.40;;;5.00;;
2944;SDS011;1482;51.398;7.128;2023-04-04T06:04:11;9.47;;;5.30;;
2944;SDS011;1482;51.398;7.128;2023-04-04T06:06:37;5.43;;;4.93;;
2944;SDS011;1482;51.398;7.128;2023-04-04T06:09:03;5.63;;;5.10;;
2944;SDS011;1482;51.398;7.128;2023-04-04T06:11:31;8.83;;;5.80;;
2944;SDS011;1482;51.398;7.128;2023-04-04T06:13:57;7.40;;;5.93;;
2944;SDS011;1482;51.398;7.128;2023-04-04T06:16:22;5.23;;;4.70;;
2944;SDS011;1482;51.398;7.128;2023-04-04T06:18:48;7.27;;;6.10;;
2944;SDS011;1482;51.398;7.128;2023-04-04T06:21:14;6.70;;;6.10;;
2944;SDS011;1482;51.398;7.128;2023-04-04T06:23:39;9.20;;;6.30;;
2944;SDS011;1482;51.398;7.128;2023-04-04T06:26:05;7.50;;;5.73;;
2944;SDS011;1482;51.398;7.128;2023-04-04T06:28:32;7.70;;;5.70;;
2944;SDS011;1482;51.398;7.128;2023-04-04T06:30:57;5.17;;;4.77;;
2944;SDS011;1482;51.398;7.128;2023-04-04T06:33:23;6.63;;;5.13;;
2944;SDS011;1482;51.398;7.128;2023-04-04T06:35:49;7.63;;;6.70;;
2944;SDS011;1482;51.398;7.128;2023-04-04T06:38:14;5.77;;;4.87;;
2944;SDS011;1482;51.398;7.128;2023-04-04T06:40:40;6.50;;;4.33;;
2944;SDS011;1482;51.398;7.128;2023-04-04T06:43:05;10.40;;;9.60;;
2944;SDS011;1482;51.398;7.128;2023-04-04T06:45:32;5.60;;;4.63;;
2944;SDS011;1482;51.398;7.128;2023-04-04T06:47:59;6.50;;;5.03;;
2944;SDS011;1482;51.398;7.128;2023-04-04T06:50:25;6.17;;;5.57;;
2944;SDS011;1482;51.398;7.128;2023-04-04T06:52:56;9.43;;;7.20;;
2944;SDS011;1482;51.398;7.128;2023-04-04T06:55:21;6.60;;;6.10;;
2944;SDS011;1482;51.398;7.128;2023-04-04T06:57:47;10.13;;;6.80;;
2944;SDS011;1482;51.398;7.128;2023-04-04T07:00:13;7.53;;;6.80;;
2944;SDS011;1482;51.398;7.128;2023-04-04T07:02:39;12.20;;;8.70;;
2944;SDS011;1482;51.398;7.128;2023-04-04T07:05:05;9.93;;;9.13;;
2944;SDS011;1482;51.398;7.128;2023-04-04T07:07:31;8.70;;;7.90;;
2944;SDS011;1482;51.398;7.128;2023-04-04T07:09:56;9.10;;;8.40;;
2944;SDS011;1482;51.398;7.128;2023-04-04T07:12:22;9.70;;;8.70;;
2944;SDS011;1482;51.398;7.128;2023-04-04T07:14:47;12.77;;;8.97;;
2944;SDS011;1482;51.398;7.128;2023-04-04T07:17:13;9.87;;;7.80;;
2944;SDS011;1482;51.398;7.128;2023-04-04T07:19:38;10.47;;;9.37;;
2944;SDS011;1482;51.398;7.128;2023-04-04T07:22:04;9.70;;;7.20;;
2944;SDS011;1482;51.398;7.128;2023-04-04T07:24:30;9.60;;;7.50;;
2944;SDS011;1482;51.398;7.128;2023-04-04T07:26:55;9.73;;;7.47;;
2944;SDS011;1482;51.398;7.128;2023-04-04T07:29:21;5.43;;;4.90;;
2944;SDS011;1482;51.398;7.128;2023-04-04T07:31:47;8.53;;;6.03;;
2944;SDS011;1482;51.398;7.128;2023-04-04T07:34:13;8.20;;;5.80;;
2944;SDS011;1482;51.398;7.128;2023-04-04T07:36:38;7.00;;;4.90;;
2944;SDS011;1482;51.398;7.128;2023-04-04T07:39:04;6.80;;;5.17;;
2944;SDS011;1482;51.398;7.128;2023-04-04T07:41:30;8.83;;;4.93;;
2944;SDS011;1482;51.398;7.128;2023-04-04T07:43:57;9.23;;;4.97;;
2944;SDS011;1482;51.398;7.128;2023-04-04T07:46:22;6.03;;;5.30;;
2944;SDS011;1482;51.398;7.128;2023-04-04T07:48:48;7.23;;;5.67;;
2944;SDS011;1482;51.398;7.128;2023-04-04T07:51:14;6.07;;;5.47;;
2944;SDS011;1482;51.398;7.128;2023-04-04T07:53:40;8.37;;;7.70;;
2944;SDS011;1482;51.398;7.128;2023-04-04T07:56:05;8.47;;;6.97;;
2944;SDS011;1482;51.398;7.128;2023-04-04T07:58:34;8.30;;;7.60;;
2944;SDS011;1482;51.398;7.128;2023-04-04T08:01:00;6.87;;;4.70;;
2944;SDS011;1482;51.398;7.128;2023-04-04T08:03:27;5.07;;;3.97;;
2944;SDS011;1482;51.398;7.128;2023-04-04T08:05:53;5.70;;;4.37;;
2944;SDS011;1482;51.398;7.128;2023-04-04T08:08:18;6.33;;;4.70;;
2944;SDS011;1482;51.398;7.128;2023-04-04T08:10:45;5.20;;;4.67;;
2944;SDS011;1482;51.398;7.128;2023-04-04T08:13:11;8.47;;;7.60;;
2944;SDS011;1482;51.398;7.128;2023-04-04T08:15:37;7.80;;;6.37;;
2944;SDS011;1482;51.398;7.128;2023-04-04T08:18:03;6.73;;;6.07;;
2944;SDS011;1482;51.398;7.128;2023-04-04T08:20:29;8.13;;;5.13;;
2944;SDS011;1482;51.398;7.128;2023-04-04T08:22:55;8.43;;;4.63;;
2944;SDS011;1482;51.398;7.128;2023-04-04T08:25:21;5.47;;;4.50;;
2944;SDS011;1482;51.398;7.128;2023-04-04T08:27:47;4.80;;;3.83;;
2944;SDS011;1482;51.398;7.128;2023-04-04T08:30:12;8.00;;;4.47;;
2944;SDS011;1482;51.398;7.128;2023-04-04T08:32:39;5.90;;;4.10;;
2944;SDS011;1482;51.398;7.128;2023-04-04T08:35:06;4.27;;;2.70;;
2944;SDS011;1482;51.398;7.128;2023-04-04T08:37:32;5.33;;;3.80;;
2944;SDS011;1482;51.398;7.128;2023-04-04T08:39:59;3.60;;;2.70;;
2944;SDS011;1482;51.398;7.128;2023-04-04T08:42:26;4.33;;;3.00;;
2944;SDS011;1482;51.398;7.128;2023-04-04T08:44:54;6.60;;;2.97;;
2944;SDS011;1482;51.398;7.128;2023-04-04T08:47:23;3.10;;;2.50;;
2944;SDS011;1482;51.398;7.128;2023-04-04T08:49:50;2.80;;;2.47;;
2944;SDS011;1482;51.398;7.128;2023-04-04T08:52:17;3.63;;;2.80;;
2944;SDS011;1482;51.398;7.128;2023-04-04T08:54:46;4.20;;;2.93;;
2944;SDS011;1482;51.398;7.128;2023-04-04T08:57:14;5.43;;;2.83;;
2944;SDS011;1482;51.398;7.128;2023-04-04T08:59:40;6.23;;;2.70;;
2944;SDS011;1482;51.398;7.128;2023-04-04T09:04:36;3.57;;;2.50;;
2944;SDS011;1482;51.398;7.128;2023-04-04T09:07:03;6.10;;;2.80;;
2944;SDS011;1482;51.398;7.128;2023-04-04T09:09:30;5.07;;;2.43;;
2944;SDS011;1482;51.398;7.128;2023-04-04T09:11:58;2.93;;;2.50;;
2944;SDS011;1482;51.398;7.128;2023-04-04T09:14:25;4.83;;;3.03;;
2944;SDS011;1482;51.398;7.128;2023-04-04T09:16:53;4.20;;;2.50;;
2944;SDS011;1482;51.398;7.128;2023-04-04T09:19:19;6.03;;;3.03;;
2944;SDS011;1482;51.398;7.128;2023-04-04T09:21:45;3.43;;;2.60;;
2944;SDS011;1482;51.398;7.128;2023-04-04T09:24:12;3.93;;;2.97;;
2944;SDS011;1482;51.398;7.128;2023-04-04T09:26:48;7.93;;;2.50;;
2944;SDS011;1482;51.398;7.128;2023-04-04T09:29:19;9.40;;;3.83;;
2944;SDS011;1482;51.398;7.128;2023-04-04T09:31:46;8.10;;;2.67;;
2944;SDS011;1482;51.398;7.128;2023-04-04T09:34:14;2.47;;;2.20;;
2944;SDS011;1482;51.398;7.128;2023-04-04T09:36:41;2.60;;;2.30;;
2944;SDS011;1482;51.398;7.128;2023-04-04T09:39:08;4.10;;;2.50;;
2944;SDS011;1482;51.398;7.128;2023-04-04T09:41:38;4.50;;;2.60;;
2944;SDS011;1482;51.398;7.128;2023-04-04T09:44:04;3.07;;;2.00;;
2944;SDS011;1482;51.398;7.128;2023-04-04T09:46:31;4.67;;;2.70;;
2944;SDS011;1482;51.398;7.128;2023-04-04T09:48:59;2.87;;;2.57;;
2944;SDS011;1482;51.398;7.128;2023-04-04T09:51:28;2.87;;;2.50;;
2944;SDS011;1482;51.398;7.128;2023-04-04T09:53:59;4.20;;;2.80;;
2944;SDS011;1482;51.398;7.128;2023-04-04T09:56:25;2.90;;;2.60;;
2944;SDS011;1482;51.398;7.128;2023-04-04T09:58:51;4.43;;;3.47;;
2944;SDS011;1482;51.398;7.128;2023-04-04T10:01:18;3.70;;;2.33;;
2944;SDS011;1482;51.398;7.128;2023-04-04T10:03:47;4.67;;;3.20;;
2944;SDS011;1482;51.398;7.128;2023-04-04T10:06:16;2.97;;;2.70;;
2944;SDS011;1482;51.398;7.128;2023-04-04T10:08:42;5.00;;;3.60;;
2944;SDS011;1482;51.398;7.128;2023-04-04T10:11:08;4.50;;;2.90;;
2944;SDS011;1482;51.398;7.128;2023-04-04T10:13:34;5.90;;;2.80;;
2944;SDS011;1482;51.398;7.128;2023-04-04T10:16:04;2.50;;;2.30;;
2944;SDS011;1482;51.398;7.128;2023-04-04T10:18:33;6.70;;;2.90;;
2944;SDS011;1482;51.398;7.128;2023-04-04T10:21:00;4.40;;;2.53;;
2944;SDS011;1482;51.398;7.128;2023-04-04T10:23:29;4.00;;;2.37;;
2944;SDS011;1482;51.398;7.128;2023-04-04T10:25:57;6.27;;;2.90;;
2944;SDS011;1482;51.398;7.128;2023-04-04T10:28:23;3.40;;;2.33;;
2944;SDS011;1482;51.398;7.128;2023-04-04T10:33:31;4.03;;;2.40;;
2944;SDS011;1482;51.398;7.128;2023-04-04T10:36:03;2.30;;;2.10;;
2944;SDS011;1482;51.398;7.128;2023-04-04T10:38:33;4.77;;;2.30;;
2944;SDS011;1482;51.398;7.128;2023-04-04T10:41:09;3.07;;;2.77;;
2944;SDS011;1482;51.398;7.128;2023-04-04T10:43:39;5.40;;;3.30;;
2944;SDS011;1482;51.398;7.128;2023-04-04T10:46:14;3.97;;;2.90;;
2944;SDS011;1482;51.398;7.128;2023-04-04T10:48:43;3.83;;;2.33;;
2944;SDS011;1482;51.398;7.128;2023-04-04T10:51:10;4.27;;;2.33;;
2944;SDS011;1482;51.398;7.128;2023-04-04T10:53:35;3.97;;;2.90;;
2944;SDS011;1482;51.398;7.128;2023-04-04T10:56:03;4.90;;;2.53;;
2944;SDS011;1482;51.398;7.128;2023-04-04T10:58:29;5.57;;;3.13;;
2944;SDS011;1482;51.398;7.128;2023-04-04T11:00:55;4.90;;;2.47;;
2944;SDS011;1482;51.398;7.128;2023-04-04T11:03:21;5.37;;;3.00;;
2944;SDS011;1482;51.398;7.128;2023-04-04T11:05:49;2.97;;;2.20;;
2944;SDS011;1482;51.398;7.128;2023-04-04T11:08:22;3.33;;;2.47;;
2944;SDS011;1482;51.398;7.128;2023-04-04T11:10:50;3.83;;;2.30;;
2944;SDS011;1482;51.398;7.128;2023-04-04T11:13:18;3.77;;;2.10;;
2944;SDS011;1482;51.398;7.128;2023-04-04T11:15:54;4.63;;;1.93;;
2944;SDS011;1482;51.398;7.128;2023-04-04T11:18:22;3.77;;;2.77;;
2944;SDS011;1482;51.398;7.128;2023-04-04T11:26:16;8.50;;;2.80;;
2944;SDS011;1482;51.398;7.128;2023-04-04T11:28:55;4.60;;;1.97;;
2944;SDS011;1482;51.398;7.128;2023-04-04T11:31:22;3.40;;;2.30;;
2944;SDS011;1482;51.398;7.128;2023-04-04T11:33:55;5.67;;;2.60;;
2944;SDS011;1482;51.398;7.128;2023-04-04T11:39:02;6.53;;;2.83;;
2944;SDS011;1482;51.398;7.128;2023-04-04T11:41:46;8.63;;;2.87;;
2944;SDS011;1482;51.398;7.128;2023-04-04T11:44:13;2.47;;;2.23;;
2944;SDS011;1482;51.398;7.128;2023-04-04T11:46:40;5.30;;;2.90;;
2944;SDS011;1482;51.398;7.128;2023-04-04T11:49:06;3.93;;;2.40;;
2944;SDS011;1482;51.398;7.128;2023-04-04T11:51:31;4.50;;;2.33;;
2944;SDS011;1482;51.398;7.128;2023-04-04T11:53:57;5.03;;;2.87;;
2944;SDS011;1482;51.398;7.128;2023-04-04T11:56:23;5.57;;;2.53;;
2944;SDS011;1482;51.398;7.128;2023-04-04T11:58:49;4.10;;;2.90;;
2944;SDS011;1482;51.398;7.128;2023-04-04T12:01:15;2.73;;;2.37;;
2944;SDS011;1482;51.398;7.128;2023-04-04T12:03:44;4.30;;;2.60;;
2944;SDS011;1482;51.398;7.128;2023-04-04T12:06:10;5.90;;;2.70;;
2944;SDS011;1482;51.398;7.128;2023-04-04T12:08:36;6.40;;;2.40;;
2944;SDS011;1482;51.398;7.128;2023-04-04T12:11:05;6.23;;;3.43;;
2944;SDS011;1482;51.398;7.128;2023-04-04T12:13:33;3.50;;;2.77;;
2944;SDS011;1482;51.398;7.128;2023-04-04T12:15:58;4.40;;;2.50;;
2944;SDS011;1482;51.398;7.128;2023-04-04T12:18:24;4.17;;;2.57;;
2944;SDS011;1482;51.398;7.128;2023-04-04T12:20:51;4.20;;;2.50;;
2944;SDS011;1482;51.398;7.128;2023-04-04T12:23:17;3.07;;;2.77;;
2944;SDS011;1482;51.398;7.128;2023-04-04T12:25:43;7.40;;;2.07;;
2944;SDS011;1482;51.398;7.128;2023-04-04T12:28:12;5.60;;;2.90;;
2944;SDS011;1482;51.398;7.128;2023-04-04T12:30:38;4.30;;;2.53;;
2944;SDS011;1482;51.398;7.128;2023-04-04T12:33:04;4.50;;;2.23;;
2944;SDS011;1482;51.398;7.128;2023-04-04T12:35:30;7.27;;;2.60;;
2944;SDS011;1482;51.398;7.128;2023-04-04T12:38:00;7.70;;;3.37;;
2944;SDS011;1482;51.398;7.128;2023-04-04T12:40:30;5.33;;;2.67;;
2944;SDS011;1482;51.398;7.128;2023-04-04T12:42:58;4.07;;;2.87;;
2944;SDS011;1482;51.398;7.128;2023-04-04T12:45:25;4.80;;;2.97;;
2944;SDS011;1482;51.398;7.128;2023-04-04T12:47:55;4.70;;;3.40;;
2944;SDS011;1482;51.398;7.128;2023-04-04T12:50:22;2.90;;;2.60;;
2944;SDS011;1482;51.398;7.128;2023-04-04T12:52:53;4.17;;;2.53;;
2944;SDS011;1482;51.398;7.128;2023-04-04T12:55:19;3.60;;;2.73;;
2944;SDS011;1482;51.398;7.128;2023-04-04T12:57:46;3.73;;;2.33;;
2944;SDS011;1482;51.398;7.128;2023-04-04T13:00:13;6.10;;;2.40;;
2944;SDS011;1482;51.398;7.128;2023-04-04T13:02:41;5.10;;;2.80;;
2944;SDS011;1482;51.398;7.128;2023-04-04T13:05:10;2.67;;;2.17;;
2944;SDS011;1482;51.398;7.128;2023-04-04T13:07:36;5.03;;;3.03;;
2944;SDS011;1482;51.398;7.128;2023-04-04T13:10:07;4.83;;;3.00;;
2944;SDS011;1482;51.398;7.128;2023-04-04T13:18:13;6.03;;;3.10;;
2944;SDS011;1482;51.398;7.128;2023-04-04T13:20:40;8.87;;;4.07;;
2944;SDS011;1482;51.398;7.128;2023-04-04T13:23:05;8.00;;;3.10;;
2944;SDS011;1482;51.398;7.128;2023-04-04T13:25:31;6.40;;;2.90;;
2944;SDS011;1482;51.398;7.128;2023-04-04T13:27:57;3.63;;;2.57;;
2944;SDS011;1482;51.398;7.128;2023-04-04T13:30:23;3.17;;;2.87;;
2944;SDS011;1482;51.398;7.128;2023-04-04T13:32:48;3.87;;;2.87;;
2944;SDS011;1482;51.398;7.128;2023-04-04T13:35:14;3.53;;;2.63;;
2944;SDS011;1482;51.398;7.128;2023-04-04T13:37:40;4.37;;;2.70;;
2944;SDS011;1482;51.398;7.128;2023-04-04T13:40:05;4.17;;;3.03;;
2944;SDS011;1482;51.398;7.128;2023-04-04T13:42:34;8.97;;;2.90;;
2944;SDS011;1482;51.398;7.128;2023-04-04T13:44:59;9.10;;;2.87;;
2944;SDS011;1482;51.398;7.128;2023-04-04T13:47:25;6.87;;;2.90;;
2944;SDS011;1482;51.398;7.128;2023-04-04T13:49:51;3.87;;;2.50;;
2944;SDS011;1482;51.398;7.128;2023-04-04T13:52:18;4.27;;;3.47;;
2944;SDS011;1482;51.398;7.128;2023-04-04T13:54:43;5.70;;;3.70;;
2944;SDS011;1482;51.398;7.128;2023-04-04T13:57:09;3.63;;;3.00;;
2944;SDS011;1482;51.398;7.128;2023-04-04T13:59:35;7.60;;;3.30;;
2944;SDS011;1482;51.398;7.128;2023-04-04T14:02:00;3.57;;;3.23;;
2944;SDS011;1482;51.398;7.128;2023-04-04T14:04:27;7.53;;;3.40;;
2944;SDS011;1482;51.398;7.128;2023-04-04T14:06:52;5.03;;;3.70;;
2944;SDS011;1482;51.398;7.128;2023-04-04T14:09:18;5.00;;;3.73;;
2944;SDS011;1482;51.398;7.128;2023-04-04T14:11:44;5.70;;;2.70;;
2944;SDS011;1482;51.398;7.128;2023-04-04T14:14:10;4.67;;;2.90;;
2944;SDS011;1482;51.398;7.128;2023-04-04T14:16:35;4.97;;;3.20;;
2944;SDS011;1482;51.398;7.128;2023-04-04T14:19:01;3.20;;;2.13;;
2944;SDS011;1482;51.398;7.128;2023-04-04T14:21:27;4.67;;;3.27;;
2944;SDS011;1482;51.398;7.128;2023-04-04T14:23:52;5.97;;;2.90;;
2944;SDS011;1482;51.398;7.128;2023-04-04T14:26:18;3.73;;;2.67;;
2944;SDS011;1482;51.398;7.128;2023-04-04T14:28:43;3.73;;;2.80;;
2944;SDS011;1482;51.398;7.128;2023-04-04T14:31:09;4.57;;;2.77;;
2944;SDS011;1482;51.398;7.128;2023-04-04T14:33:35;8.60;;;3.13;;
2944;SDS011;1482;51.398;7.128;2023-04-04T14:36:00;5.33;;;3.03;;
2944;SDS011;1482;51.398;7.128;2023-04-04T14:38:26;3.53;;;2.67;;
2944;SDS011;1482;51.398;7.128;2023-04-04T14:40:51;7.40;;;3.40;;
2944;SDS011;1482;51.398;7.128;2023-04-04T14:43:17;3.47;;;2.77;;
2944;SDS011;1482;51.398;7.128;2023-04-04T14:45:43;3.03;;;2.70;;
2944;SDS011;1482;51.398;7.128;2023-04-04T14:48:08;5.33;;;3.00;;
2944;SDS011;1482;51.398;7.128;2023-04-04T14:50:34;3.57;;;2.80;;
2944;SDS011;1482;51.398;7.128;2023-04-04T14:53:02;4.43;;;2.63;;
2944;SDS011;1482;51.398;7.128;2023-04-04T14:55:27;4.07;;;3.00;;
2944;SDS011;1482;51.398;7.128;2023-04-04T14:57:53;4.63;;;2.87;;
2944;SDS011;1482;51.398;7.128;2023-04-04T15:00:19;4.53;;;3.30;;
2944;SDS011;1482;51.398;7.128;2023-04-04T15:02:45;3.03;;;2.73;;
2944;SDS011;1482;51.398;7.128;2023-04-04T15:05:12;6.73;;;3.40;;
2944;SDS011;1482;51.398;7.128;2023-04-04T15:07:39;7.03;;;3.07;;
2944;SDS011;1482;51.398;7.128;2023-04-04T15:10:05;4.27;;;2.50;;
2944;SDS011;1482;51.398;7.128;2023-04-04T15:12:31;8.63;;;3.93;;
2944;SDS011;1482;51.398;7.128;2023-04-04T15:14:57;3.97;;;3.40;;
2944;SDS011;1482;51.398;7.128;2023-04-04T15:17:22;3.77;;;2.47;;
2944;SDS011;1482;51.398;7.128;2023-04-04T15:19:48;7.63;;;3.03;;
2944;SDS011;1482;51.398;7.128;2023-04-04T15:22:13;9.83;;;3.40;;
2944;SDS011;1482;51.398;7.128;2023-04-04T15:24:39;4.50;;;2.80;;
2944;SDS011;1482;51.398;7.128;2023-04-04T15:27:04;6.57;;;4.07;;
2944;SDS011;1482;51.398;7.128;2023-04-04T15:29:30;4.30;;;2.80;;
2944;SDS011;1482;51.398;7.128;2023-04-04T15:31:56;7.53;;;3.90;;